Atayal Mariner — 3FKB8 — position and weather

sailwx.info

Track history (hours):
 
Tides and Currents Weather Stations Pressure Air Temp Water Temp Dewpoint Dewpoint Depression Visibility Wind Speed Wind Dir Waves Ship Positions

Atayal Mariner

Last reported at 2018-May-18 10:03 UTC. Time now 2018-Jun-25 17:51 UTC.
Position N 22°52' E 120°02'.
Warning: this ship's position is 38 days out of date.

Length 135 m; draft 5.4 m.

Type: Cargo ship. MMSI: 373189000.

Date/timePositionNaut miles runAvg speedWind from/ knotsBaromVisibWave heightAir tempDewpointWater temp
2018-May-18 10:03N 22°52' E 120°02'110.9
2018-May-18 10:00N 22°52' E 120°03'510.6
2018-May-18 09:30N 22°47' E 120°05'510.2
2018-May-18 09:00N 22°43' E 120°08'510.1
2018-May-18 08:30N 22°38' E 120°11'5 9.9
2018-May-18 08:00N 22°34' E 120°13'5 9.1
2018-May-18 07:30N 22°33' E 120°18'3 0.1
2018-May-17 07:00N 22°32' E 120°21'0 0.0
2018-May-17 04:30N 22°33' E 120°21'0 0.0
2018-May-17 03:54N 22°33' E 120°21'0 0.0
2018-May-17 02:24N 22°33' E 120°21'0 0.0
2018-May-17 01:54N 22°32' E 120°21'1 0.1
2018-May-16 14:20N 22°33' E 120°19'2 5.9
2018-May-16 13:57N 22°33' E 120°17'1 1.8
2018-May-16 13:30N 22°32' E 120°16'3 5.4
2018-May-16 12:59N 22°32' E 120°13'510.4
2018-May-16 12:28N 22°37' E 120°10'510.3
2018-May-16 12:00N 22°41' E 120°08'5 9.6
2018-May-16 11:30N 22°46' E 120°06'5 9.3
2018-May-16 11:00N 22°50' E 120°04'  
2018-May-13 13:55N 31°48' E 127°07'510.6
2018-May-13 13:30N 31°51' E 127°10'510.9
2018-May-13 13:00N 31°55' E 127°15'2010.9
2018-May-13 11:11N 32°10' E 127°30'211.1
2018-May-13 10:59N 32°12' E 127°32'172 9.6
2018-May-12 17:05N 34°06' E 130°04'110.0
2018-May-12 17:00N 34°07' E 130°05'5 9.6
2018-May-12 16:30N 34°09' E 130°11'4 8.9
2018-May-12 16:00N 34°11' E 130°15'4 8.7
2018-May-12 15:30N 34°13' E 130°20'4 8.9
2018-May-12 15:00N 34°15' E 130°25'4 9.0
2018-May-12 14:30N 34°16' E 130°30'4 8.8
2018-May-12 14:00N 34°18' E 130°35'4 8.9
2018-May-12 13:30N 34°20' E 130°40'4 8.7
2018-May-12 13:00N 34°22' E 130°44'4 8.4
2018-May-12 12:30N 34°24' E 130°49'4 8.2
2018-May-12 12:00N 34°26' E 130°53'  
Track history (hours):
 
Tides and Currents Weather Stations Pressure Air Temp Water Temp Dewpoint Dewpoint Depression Visibility Wind Speed Wind Dir Waves Ship Positions

Atayal Mariner

Last reported at 2018-May-18 10:03 UTC. Time now 2018-Jun-25 17:51 UTC.
Position N 22°52' E 120°02'.
Warning: this ship's position is 38 days out of date.

Length 135 m; draft 5.4 m.

Type: Cargo ship. MMSI: 373189000.

Date/timePositionNaut miles runAvg speedWind from/ knotsBaromVisibWave heightAir tempDewpointWater temp
2018-May-18 10:03N 22°52' E 120°02'110.9
2018-May-18 10:00N 22°52' E 120°03'510.6
2018-May-18 09:30N 22°47' E 120°05'510.2
2018-May-18 09:00N 22°43' E 120°08'510.1
2018-May-18 08:30N 22°38' E 120°11'5 9.9
2018-May-18 08:00N 22°34' E 120°13'5 9.1
2018-May-18 07:30N 22°33' E 120°18'3 0.1
2018-May-17 07:00N 22°32' E 120°21'0 0.0
2018-May-17 04:30N 22°33' E 120°21'0 0.0
2018-May-17 03:54N 22°33' E 120°21'0 0.0
2018-May-17 02:24N 22°33' E 120°21'0 0.0
2018-May-17 01:54N 22°32' E 120°21'1 0.1
2018-May-16 14:20N 22°33' E 120°19'2 5.9
2018-May-16 13:57N 22°33' E 120°17'1 1.8
2018-May-16 13:30N 22°32' E 120°16'3 5.4
2018-May-16 12:59N 22°32' E 120°13'510.4
2018-May-16 12:28N 22°37' E 120°10'510.3
2018-May-16 12:00N 22°41' E 120°08'5 9.6
2018-May-16 11:30N 22°46' E 120°06'5 9.3
2018-May-16 11:00N 22°50' E 120°04'  
2018-May-13 13:55N 31°48' E 127°07'510.6
2018-May-13 13:30N 31°51' E 127°10'510.9
2018-May-13 13:00N 31°55' E 127°15'2010.9
2018-May-13 11:11N 32°10' E 127°30'211.1
2018-May-13 10:59N 32°12' E 127°32'172 9.6
2018-May-12 17:05N 34°06' E 130°04'110.0
2018-May-12 17:00N 34°07' E 130°05'5 9.6
2018-May-12 16:30N 34°09' E 130°11'4 8.9
2018-May-12 16:00N 34°11' E 130°15'4 8.7
2018-May-12 15:30N 34°13' E 130°20'4 8.9
2018-May-12 15:00N 34°15' E 130°25'4 9.0
2018-May-12 14:30N 34°16' E 130°30'4 8.8
2018-May-12 14:00N 34°18' E 130°35'4 8.9
2018-May-12 13:30N 34°20' E 130°40'4 8.7
2018-May-12 13:00N 34°22' E 130°44'4 8.4
2018-May-12 12:30N 34°24' E 130°49'4 8.2
2018-May-12 12:00N 34°26' E 130°53'  

Dump ship's entire track history